Time;durP1;ratioP1;P1;durP2;ratioP2;P2;SDS_P1;SDS_P2;PMS_P1;PMS_P2;Temp;Humidity;BMP_temperature;BMP_pressure;BME280_temperature;BME280_humidity;BME280_pressure;Samples;Min_cycle;Max_cycle;Signal;HPM_P1;HPM_P2
2022/05/28 00:06:34;;;;;;;;;;;;;;;11.62;67.93;99837.97;8932065;24;20692;-76
2022/05/28 00:10:37;;;;;;;;;;;;;;;11.56;68.27;99838.84;7867109;30;19969;-76
2022/05/28 00:14:40;;;;;;;;;;;;;;;11.50;69.42;99838.88;7874798;30;19930;-76
2022/05/28 00:18:42;;;;;;;;;;;;;;;11.42;69.91;99835.41;7865511;30;19969;-76
2022/05/28 00:22:45;;;;;;;;;;;;;;;11.20;69.91;99839.75;7877965;30;19934;-76
2022/05/28 00:26:47;;;;;;;;;;;;;;;11.02;70.69;99835.41;7879183;29;20340;-76
2022/05/28 00:30:49;;;;;;;;;;;;;;;11.02;70.52;99835.41;7852827;30;19930;-76
2022/05/28 00:34:51;;;;;;;;;;;;;;;10.99;70.56;99832.81;7866194;30;19930;-76
2022/05/28 00:38:54;;;;;;;;;;;;;;;10.93;69.93;99843.16;7872189;30;20016;-76
2022/05/28 00:43:01;;;;;;;;;;;;;;;10.83;70.16;99836.25;7874694;29;19961;-76
2022/05/28 00:47:05;;;;;;;;;;;;;;;10.79;69.43;99837.97;7870323;30;19934;-76
2022/05/28 00:51:09;;;;;;;;;;;;;;;10.73;69.95;99839.66;7860924;30;19930;-76
2022/05/28 00:55:13;;;;;;;;;;;;;;;10.66;69.93;99853.50;7880550;30;19940;-76
2022/05/28 00:59:15;;;;;;;;;;;;;;;10.57;70.18;99846.56;7873555;30;20310;-76
2022/05/28 01:03:25;;;;;;;;;;;;;;;10.48;70.53;99841.34;7863647;30;20457;-76
2022/05/28 01:07:34;;;;;;;;;;;;;;;10.36;70.46;99841.28;7868075;30;19936;-76
2022/05/28 01:11:47;;;;;;;;;;;;;;;10.26;71.10;99838.69;7854488;30;19948;-75
2022/05/28 01:15:53;;;;;;;;;;;;;;;10.23;71.99;99843.88;7856356;30;19930;-76
2022/05/28 01:19:58;;;;;;;;;;;;;;;10.13;72.53;99844.63;7876109;30;19991;-76
2022/05/28 01:24:06;;;;;;;;;;;;;;;10.06;72.78;99850.66;7877558;30;20413;-76
2022/05/28 01:28:12;;;;;;;;;;;;;;;10.04;73.13;99849.75;7871269;29;20536;-76
2022/05/28 01:32:15;;;;;;;;;;;;;;;9.93;74.60;99857.50;7864890;29;19969;-76
2022/05/28 01:36:18;;;;;;;;;;;;;;;9.82;75.07;99853.09;7869447;30;19939;-76
2022/05/28 01:40:21;;;;;;;;;;;;;;;9.71;75.55;99847.88;7870446;30;19991;-76
2022/05/28 01:44:25;;;;;;;;;;;;;;;9.62;75.64;99846.06;7875886;30;19991;-76
2022/05/28 01:48:29;;;;;;;;;;;;;;;9.52;76.17;99843.44;7858975;30;19930;-76
2022/05/28 01:52:32;;;;;;;;;;;;;;;9.43;76.26;99851.97;7878004;30;19930;-76
2022/05/28 01:56:38;;;;;;;;;;;;;;;9.26;76.70;99848.41;7874535;30;19926;-76
2022/05/28 02:00:41;;;;;;;;;;;;;;;9.10;77.43;99839.63;7859592;29;19940;-76
2022/05/28 02:04:44;;;;;;;;;;;;;;;8.99;77.51;99844.72;7874236;30;20335;-76
2022/05/28 02:08:49;;;;;;;;;;;;;;;8.86;78.11;99849.75;7871210;30;19930;-76
2022/05/28 02:12:57;;;;;;;;;;;;;;;8.76;78.46;99849.66;7877964;30;19946;-76
2022/05/28 02:17:08;;;;;;;;;;;;;;;8.71;78.09;99853.06;7882009;30;19995;-76
2022/05/28 02:21:17;;;;;;;;;;;;;;;8.61;79.03;99844.31;7880725;30;19930;-76
2022/05/28 02:25:32;;;;;;;;;;;;;;;8.56;79.32;99853.75;7885072;29;19930;-76
2022/05/28 02:29:38;;;;;;;;;;;;;;;8.50;79.23;99845.94;7874291;29;19930;-76
2022/05/28 02:33:40;;;;;;;;;;;;;;;8.45;79.36;99847.63;7868967;30;20598;-76
2022/05/28 02:37:42;;;;;;;;;;;;;;;8.38;79.45;99846.66;7874214;30;20016;-76
2022/05/28 02:41:44;;;;;;;;;;;;;;;8.30;79.41;99847.41;7874155;30;19933;-76
2022/05/28 02:45:47;;;;;;;;;;;;;;;8.10;79.23;99850.59;7872011;29;19969;-75
2022/05/28 02:49:51;;;;;;;;;;;;;;;7.99;79.92;99849.59;7872617;30;19933;-76
2022/05/28 02:53:55;;;;;;;;;;;;;;;7.92;80.28;99847.78;7874197;30;19934;-76
2022/05/28 02:57:56;;;;;;;;;;;;;;;7.83;80.49;99851.09;7873681;30;19978;-76
2022/05/28 03:01:58;;;;;;;;;;;;;;;7.76;80.69;99851.88;7869683;29;19957;-76
2022/05/28 03:06:00;;;;;;;;;;;;;;;7.69;81.08;99843.97;7866472;30;19941;-76
2022/05/28 03:10:02;;;;;;;;;;;;;;;7.61;81.17;99845.59;7871997;30;19930;-76
2022/05/28 03:14:04;;;;;;;;;;;;;;;7.54;81.28;99849.78;7875318;30;19934;-76
2022/05/28 03:18:06;;;;;;;;;;;;;;;7.49;81.47;99843.69;7858813;30;19999;-76
2022/05/28 03:22:08;;;;;;;;;;;;;;;7.44;81.58;99846.22;7878076;30;19930;-76
2022/05/28 03:26:13;;;;;;;;;;;;;;;7.41;81.54;99848.75;7880923;30;19961;-76
2022/05/28 03:30:15;;;;;;;;;;;;;;;7.34;81.58;99846.03;7876174;29;19930;-76
2022/05/28 03:34:17;;;;;;;;;;;;;;;7.27;81.66;99848.53;7869595;30;20322;-76
2022/05/28 03:38:19;;;;;;;;;;;;;;;7.19;82.05;99857.00;7873091;29;20692;-77
2022/05/28 03:42:21;;;;;;;;;;;;;;;7.12;82.35;99857.72;7875920;30;19951;-77
2022/05/28 03:46:28;;;;;;;;;;;;;;;7.08;82.37;99851.66;7872847;30;20049;-77
2022/05/28 03:50:31;;;;;;;;;;;;;;;7.05;82.55;99849.03;7868744;30;19933;-76
2022/05/28 03:54:33;;;;;;;;;;;;;;;7.03;82.67;99853.28;7873139;29;20614;-77
2022/05/28 03:58:35;;;;;;;;;;;;;;;7.06;82.59;99855.94;7882151;30;20263;-76
2022/05/28 04:02:39;;;;;;;;;;;;;;;7.12;82.85;99855.16;7869168;30;19930;-76
2022/05/28 04:06:41;;;;;;;;;;;;;;;7.15;82.74;99856.06;7872928;30;20263;-77
2022/05/28 04:10:43;;;;;;;;;;;;;;;7.20;83.32;99861.34;7873900;30;19930;-77
2022/05/28 04:14:44;;;;;;;;;;;;;;;7.29;83.97;99866.63;7875526;30;19957;-77
2022/05/28 04:18:46;;;;;;;;;;;;;;;7.37;84.37;99867.63;7872227;30;19945;-77
2022/05/28 04:22:48;;;;;;;;;;;;;;;7.41;84.15;99869.41;7864225;30;20280;-77
2022/05/28 04:26:50;;;;;;;;;;;;;;;7.51;84.26;99868.69;7874166;30;19929;-77
2022/05/28 04:30:52;;;;;;;;;;;;;;;7.63;84.07;99874.91;7876161;30;20371;-77
2022/05/28 04:34:56;;;;;;;;;;;;;;;7.69;83.63;99877.59;7850198;30;19933;-77
2022/05/28 04:38:58;;;;;;;;;;;;;;;7.78;83.15;99875.16;7874725;30;19988;-77
2022/05/28 04:43:00;;;;;;;;;;;;;;;7.94;83.24;99873.66;7855527;30;19945;-76
2022/05/28 04:47:02;;;;;;;;;;;;;;;8.06;83.21;99878.97;7877291;30;19929;-77
2022/05/28 04:51:05;;;;;;;;;;;;;;;8.23;82.72;99868.84;7871816;30;19925;-77
2022/05/28 04:55:07;;;;;;;;;;;;;;;8.40;82.40;99876.00;7876913;30;19980;-77
2022/05/28 04:59:11;;;;;;;;;;;;;;;8.58;81.59;99880.53;7876481;30;19933;-77
2022/05/28 05:03:15;;;;;;;;;;;;;;;8.74;80.93;99878.97;7859256;30;20397;-77
2022/05/28 05:07:19;;;;;;;;;;;;;;;8.96;80.43;99875.75;7866514;30;19930;-77
2022/05/28 05:11:25;;;;;;;;;;;;;;;9.22;80.36;99881.19;7873048;30;20033;-78
2022/05/28 05:15:29;;;;;;;;;;;;;;;9.50;79.33;99887.44;7867697;30;20336;-77
2022/05/28 05:19:31;;;;;;;;;;;;;;;9.78;78.45;99878.16;7882760;30;19963;-78
2022/05/28 05:23:40;;;;;;;;;;;;;;;10.08;77.27;99879.22;7874583;30;20459;-77
2022/05/28 05:27:43;;;;;;;;;;;;;;;10.51;76.01;99882.88;7879358;30;19968;-78
2022/05/28 05:31:45;;;;;;;;;;;;;;;11.02;74.59;99884.78;7877117;29;20005;-77
2022/05/28 05:35:47;;;;;;;;;;;;;;;11.45;73.79;99882.19;7867808;30;19936;-77
2022/05/28 05:39:48;;;;;;;;;;;;;;;11.87;71.85;99883.06;7869378;30;19938;-77
2022/05/28 05:43:51;;;;;;;;;;;;;;;12.44;69.86;99881.16;7873868;30;19936;-78
2022/05/28 05:47:53;;;;;;;;;;;;;;;13.05;67.26;99878.22;7861911;30;20040;-77
2022/05/28 05:51:55;;;;;;;;;;;;;;;13.66;63.78;99876.06;7846041;30;20199;-78
2022/05/28 05:55:57;;;;;;;;;;;;;;;14.16;61.71;99875.50;7869034;29;19973;-77
2022/05/28 06:00:00;;;;;;;;;;;;;;;14.64;60.05;99883.69;7880060;30;19934;-77
2022/05/28 06:04:02;;;;;;;;;;;;;;;15.14;57.16;99878.63;7864811;30;19930;-78
2022/05/28 06:08:04;;;;;;;;;;;;;;;15.56;56.12;99872.72;7867115;30;19969;-78
2022/05/28 06:12:06;;;;;;;;;;;;;;;15.72;53.83;99878.56;7853325;30;19966;-77
2022/05/28 06:16:08;;;;;;;;;;;;;;;16.20;53.30;99876.81;7858426;30;19930;-77
2022/05/28 06:20:17;;;;;;;;;;;;;;;16.80;51.94;99876.47;7858411;30;19987;-77
2022/05/28 06:24:20;;;;;;;;;;;;;;;17.28;50.02;99878.00;7874982;30;19929;-77
2022/05/28 06:28:22;;;;;;;;;;;;;;;17.45;48.43;99881.97;7873156;30;19995;-77
2022/05/28 06:32:24;;;;;;;;;;;;;;;17.69;48.05;99874.38;7859085;30;19938;-78
2022/05/28 06:36:26;;;;;;;;;;;;;;;17.68;48.18;99873.53;7864043;29;19934;-78
2022/05/28 06:40:27;;;;;;;;;;;;;;;17.37;48.50;99875.16;7853123;30;19929;-77
2022/05/28 06:44:29;;;;;;;;;;;;;;;17.25;48.82;99872.84;7866905;30;19940;-78
2022/05/28 06:48:31;;;;;;;;;;;;;;;17.61;48.46;99868.44;7853711;30;19965;-78
2022/05/28 06:52:37;;;;;;;;;;;;;;;17.91;47.06;99869.44;7862860;30;19934;-78
2022/05/28 06:56:39;;;;;;;;;;;;;;;18.09;47.21;99869.78;7848622;30;20431;-77
2022/05/28 07:00:40;;;;;;;;;;;;;;;17.98;45.76;99873.63;7862323;30;19930;-78
2022/05/28 07:04:45;;;;;;;;;;;;;;;18.17;45.60;99863.50;7864950;30;20004;-77
2022/05/28 07:08:46;;;;;;;;;;;;;;;18.56;44.70;99870.22;7857239;30;19930;-77
2022/05/28 07:12:48;;;;;;;;;;;;;;;18.67;44.72;99867.28;7863747;30;19964;-77
2022/05/28 07:16:50;;;;;;;;;;;;;;;18.71;44.08;99861.06;7860524;30;19973;-77
2022/05/28 07:20:53;;;;;;;;;;;;;;;18.75;43.32;99856.56;7863677;30;19937;-78
2022/05/28 07:24:54;;;;;;;;;;;;;;;18.82;43.35;99856.31;7860979;30;19936;-78
2022/05/28 07:28:56;;;;;;;;;;;;;;;18.95;42.56;99862.94;7867805;30;19984;-77
2022/05/28 07:32:58;;;;;;;;;;;;;;;19.17;41.91;99863.13;7860456;30;19949;-77
2022/05/28 07:37:01;;;;;;;;;;;;;;;18.97;41.79;99855.84;7864438;30;19984;-77
2022/05/28 07:41:07;;;;;;;;;;;;;;;18.75;42.98;99857.41;7861336;30;20332;-78
2022/05/28 07:45:09;;;;;;;;;;;;;;;18.76;41.96;99853.03;7862227;30;20334;-77
2022/05/28 07:49:13;;;;;;;;;;;;;;;18.82;42.73;99840.53;7864883;30;19937;-78
2022/05/28 07:53:15;;;;;;;;;;;;;;;18.99;43.52;99842.63;7865846;30;19930;-77
2022/05/28 07:57:19;;;;;;;;;;;;;;;19.15;42.46;99835.97;7855801;30;19937;-77
2022/05/28 08:01:23;;;;;;;;;;;;;;;19.24;41.29;99835.69;7865910;30;20016;-78
2022/05/28 08:05:26;;;;;;;;;;;;;;;19.12;40.71;99836.09;7873011;30;19949;-78
2022/05/28 08:09:29;;;;;;;;;;;;;;;19.23;41.74;99825.22;7872859;30;19930;-78
2022/05/28 08:13:33;;;;;;;;;;;;;;;19.65;41.45;99830.84;7869323;30;20236;-77
2022/05/28 08:17:34;;;;;;;;;;;;;;;19.53;42.27;99828.59;7866761;30;19945;-77
2022/05/28 08:25:57;;;;;;;;;;;;;;;19.49;41.21;99826.97;7871584;30;20098;-77
2022/05/28 08:29:59;;;;;;;;;;;;;;;19.87;39.85;99825.69;7859587;30;20025;-78
2022/05/28 08:34:02;;;;;;;;;;;;;;;20.18;38.41;99814.91;7865564;30;19930;-77
2022/05/28 08:38:04;;;;;;;;;;;;;;;20.74;39.87;99819.81;7869233;30;20328;-77
2022/05/28 08:42:09;;;;;;;;;;;;;;;21.07;39.49;99815.84;7865169;30;19956;-76
2022/05/28 08:46:12;;;;;;;;;;;;;;;21.18;36.64;99812.75;7867271;30;19965;-78
2022/05/28 08:50:15;;;;;;;;;;;;;;;21.18;37.43;99815.38;7873991;30;19962;-77
2022/05/28 08:54:35;;;;;;;;;;;;;;;21.04;35.71;99808.06;7867903;30;20528;-77
2022/05/28 08:58:37;;;;;;;;;;;;;;;20.50;38.60;99801.41;7855113;30;20041;-77
2022/05/28 09:02:45;;;;;;;;;;;;;;;20.37;39.90;99797.47;7870852;30;20463;-77
2022/05/28 09:06:51;;;;;;;;;;;;;;;20.73;39.14;99807.56;7871764;30;20291;-77
2022/05/28 09:10:54;;;;;;;;;;;;;;;20.48;38.64;99800.59;7873918;30;19977;-77
2022/05/28 09:14:55;;;;;;;;;;;;;;;20.20;38.59;99802.50;7873229;30;20373;-77
2022/05/28 09:19:02;;;;;;;;;;;;;;;20.31;37.55;99810.88;7871759;30;20029;-76
2022/05/28 09:23:03;;;;;;;;;;;;;;;20.13;36.14;99801.88;7876302;30;19976;-76
2022/05/28 09:27:14;;;;;;;;;;;;;;;19.54;37.12;99802.22;7874631;30;19977;-76
2022/05/28 09:31:23;;;;;;;;;;;;;;;19.02;39.94;99803.06;7871634;30;20017;-76
2022/05/28 09:35:34;;;;;;;;;;;;;;;18.81;41.23;99798.47;7858242;30;19939;-76
2022/05/28 09:39:44;;;;;;;;;;;;;;;18.69;42.03;99799.75;7873266;30;19969;-76
2022/05/28 09:44:01;;;;;;;;;;;;;;;18.55;43.01;99799.28;7878129;30;19930;-76
2022/05/28 09:48:03;;;;;;;;;;;;;;;18.41;42.93;99791.78;7868003;29;20033;-76
2022/05/28 09:52:05;;;;;;;;;;;;;;;18.25;42.30;99791.38;7865208;30;20139;-76
2022/05/28 09:56:10;;;;;;;;;;;;;;;18.87;43.01;99783.38;7865632;30;19974;-75
2022/05/28 10:00:13;;;;;;;;;;;;;;;19.37;39.81;99774.69;7870850;30;19968;-75
2022/05/28 10:04:30;;;;;;;;;;;;;;;19.35;39.21;99781.78;7875455;30;19992;-76
2022/05/28 10:08:32;;;;;;;;;;;;;;;19.18;36.57;99772.69;7876550;30;19930;-75
2022/05/28 10:12:34;;;;;;;;;;;;;;;19.37;38.86;99767.66;7876808;30;19973;-76
2022/05/28 10:16:37;;;;;;;;;;;;;;;19.67;38.77;99764.91;7876175;30;19976;-76
2022/05/28 10:21:07;;;;;;;;;;;;;;;19.46;38.91;99771.78;7873893;30;19981;-75
2022/05/28 10:25:22;;;;;;;;;;;;;;;19.17;40.40;99765.72;7864578;30;20028;-75
2022/05/28 10:29:40;;;;;;;;;;;;;;;18.98;41.62;99764.59;7862945;30;19987;-76
2022/05/28 10:33:43;;;;;;;;;;;;;;;19.27;41.55;99758.38;7865039;30;19930;-75
2022/05/28 10:37:45;;;;;;;;;;;;;;;19.91;40.49;99742.94;7869977;30;19930;-77
2022/05/28 10:41:50;;;;;;;;;;;;;;;20.34;37.83;99744.84;7867078;30;19949;-77
2022/05/28 10:46:03;;;;;;;;;;;;;;;20.17;37.17;99744.63;7866545;30;19980;-76
2022/05/28 10:50:09;;;;;;;;;;;;;;;20.08;36.65;99731.75;7871267;30;19941;-76
2022/05/28 10:54:16;;;;;;;;;;;;;;;20.16;35.21;99732.34;7867332;30;20573;-77
2022/05/28 10:58:33;;;;;;;;;;;;;;;20.54;34.56;99722.97;7872881;30;19958;-77
2022/05/28 11:02:53;;;;;;;;;;;;;;;21.06;35.88;99719.06;7868217;30;19941;-77
2022/05/28 11:07:01;;;;;;;;;;;;;;;21.45;34.75;99701.59;7869043;30;19955;-77
2022/05/28 11:11:12;;;;;;;;;;;;;;;21.70;34.63;99700.44;7872671;30;20028;-77
2022/05/28 11:15:17;;;;;;;;;;;;;;;21.26;33.43;99697.13;7867472;30;19930;-77
2022/05/28 11:19:37;;;;;;;;;;;;;;;20.89;35.16;99696.94;7868652;30;20005;-77
2022/05/28 11:23:39;;;;;;;;;;;;;;;20.37;34.31;99691.97;7872678;30;19930;-77
2022/05/28 11:27:58;;;;;;;;;;;;;;;19.87;34.65;99684.22;7868963;30;20708;-77
2022/05/28 11:32:03;;;;;;;;;;;;;;;19.62;36.13;99686.06;7855623;30;20041;-77
2022/05/28 11:36:08;;;;;;;;;;;;;;;19.56;37.57;99684.47;7872336;30;20515;-77
2022/05/28 11:40:14;;;;;;;;;;;;;;;19.90;37.15;99688.50;7871634;30;20348;-76
2022/05/28 11:44:15;;;;;;;;;;;;;;;20.46;37.57;99667.00;7869866;30;19944;-76
2022/05/28 11:48:22;;;;;;;;;;;;;;;20.30;35.97;99668.53;7862421;29;20040;-76
2022/05/28 11:52:35;;;;;;;;;;;;;;;20.45;36.94;99655.59;7860727;30;19957;-76
2022/05/28 11:56:37;;;;;;;;;;;;;;;20.77;34.69;99651.63;7860553;30;19941;-76
2022/05/28 12:00:40;;;;;;;;;;;;;;;21.14;34.45;99644.78;7860003;30;19993;-77
2022/05/28 12:04:42;;;;;;;;;;;;;;;21.52;35.05;99644.91;7866102;30;19930;-76
2022/05/28 12:08:44;;;;;;;;;;;;;;;21.99;34.08;99630.38;7874720;30;19952;-77
2022/05/28 12:12:55;;;;;;;;;;;;;;;22.26;32.83;99628.22;7869002;30;20447;-77
2022/05/28 12:16:56;;;;;;;;;;;;;;;22.55;32.80;99618.00;7865192;30;19929;-77
2022/05/28 12:20:59;;;;;;;;;;;;;;;22.61;30.41;99609.72;7863965;30;19940;-77
2022/05/28 12:25:14;;;;;;;;;;;;;;;22.54;30.70;99606.53;7868242;30;20084;-76
2022/05/28 12:29:33;;;;;;;;;;;;;;;22.48;28.86;99612.16;7868023;30;19940;-77
2022/05/28 12:33:49;;;;;;;;;;;;;;;22.44;29.71;99604.41;7862690;30;19977;-76
2022/05/28 12:37:51;;;;;;;;;;;;;;;22.32;31.35;99605.91;7864041;30;20594;-76
2022/05/28 12:41:59;;;;;;;;;;;;;;;22.16;31.81;99587.28;7867382;30;19964;-77
2022/05/28 12:46:15;;;;;;;;;;;;;;;22.21;31.52;99587.03;7864092;29;19934;-77
2022/05/28 12:50:27;;;;;;;;;;;;;;;21.65;31.87;99590.56;7861311;30;19936;-76
2022/05/28 12:54:31;;;;;;;;;;;;;;;21.48;32.65;99582.56;7864990;30;19930;-77
2022/05/28 12:58:38;;;;;;;;;;;;;;;21.64;32.14;99573.00;7860754;30;19973;-77
2022/05/28 13:02:43;;;;;;;;;;;;;;;21.42;32.75;99570.50;7860688;30;20511;-77
2022/05/28 13:06:50;;;;;;;;;;;;;;;21.11;32.63;99571.84;7862519;30;19936;-75
2022/05/28 13:11:18;;;;;;;;;;;;;;;20.69;33.69;99568.44;7867155;30;19930;-75
2022/05/28 13:15:27;;;;;;;;;;;;;;;20.31;34.34;99560.34;7850359;30;19958;-76
2022/05/28 13:19:38;;;;;;;;;;;;;;;20.30;35.60;99565.69;7859640;30;19930;-75
2022/05/28 13:23:45;;;;;;;;;;;;;;;20.35;35.37;99551.38;7863035;30;19929;-75
2022/05/28 13:27:56;;;;;;;;;;;;;;;20.37;34.50;99544.25;7865073;30;20013;-75
2022/05/28 13:32:04;;;;;;;;;;;;;;;20.52;36.52;99545.41;7862321;30;20036;-75
2022/05/28 13:36:09;;;;;;;;;;;;;;;20.92;35.61;99541.03;7869072;30;19953;-76
2022/05/28 13:40:12;;;;;;;;;;;;;;;21.36;33.00;99528.50;7859025;30;19937;-75
2022/05/28 13:44:17;;;;;;;;;;;;;;;21.47;31.64;99531.50;7864111;30;19942;-75
2022/05/28 13:48:22;;;;;;;;;;;;;;;21.33;32.25;99526.84;7857517;30;20036;-76
2022/05/28 13:52:23;;;;;;;;;;;;;;;21.25;30.87;99525.50;7862520;30;19999;-76
2022/05/28 13:56:26;;;;;;;;;;;;;;;21.56;30.92;99517.03;7858932;30;20360;-76
2022/05/28 14:00:29;;;;;;;;;;;;;;;21.61;31.04;99517.66;7857868;29;20423;-75
2022/05/28 14:04:32;;;;;;;;;;;;;;;21.13;32.48;99511.88;7856145;30;19936;-77
2022/05/28 14:08:39;;;;;;;;;;;;;;;20.93;33.90;99506.66;7855144;30;20033;-77
2022/05/28 14:12:42;;;;;;;;;;;;;;;21.45;34.18;99498.16;7861089;30;19930;-77
2022/05/28 14:16:54;;;;;;;;;;;;;;;21.92;33.63;99495.88;7864016;30;19930;-74
2022/05/28 14:21:04;;;;;;;;;;;;;;;22.23;32.83;99492.59;7850423;30;19930;-74
2022/05/28 14:25:07;;;;;;;;;;;;;;;22.21;31.06;99486.53;7865645;30;19930;-74
2022/05/28 14:29:55;;;;;;;;;;;;;;;21.80;32.42;99491.19;7867812;30;20011;-74
2022/05/28 14:33:57;;;;;;;;;;;;;;;21.30;32.95;99486.53;7856708;30;19970;-74
2022/05/28 14:38:00;;;;;;;;;;;;;;;21.05;32.50;99486.78;7857550;30;19940;-73
2022/05/28 14:42:05;;;;;;;;;;;;;;;20.66;31.00;99489.44;7866114;30;19973;-73
2022/05/28 14:46:14;;;;;;;;;;;;;;;20.51;32.39;99483.03;7869395;30;20057;-73
2022/05/28 14:50:24;;;;;;;;;;;;;;;20.39;31.64;99470.34;7855589;30;20003;-73
2022/05/28 14:54:33;;;;;;;;;;;;;;;20.16;33.66;99471.31;7857350;30;19961;-74
2022/05/28 14:58:39;;;;;;;;;;;;;;;20.32;33.48;99472.38;7854495;30;19976;-74
2022/05/28 15:02:40;;;;;;;;;;;;;;;20.44;32.77;99463.09;7852429;30;19930;-74
2022/05/28 15:06:59;;;;;;;;;;;;;;;20.66;33.09;99458.63;7859564;30;19937;-73
2022/05/28 15:11:01;;;;;;;;;;;;;;;20.95;33.47;99457.28;7863960;30;20285;-74
2022/05/28 15:15:04;;;;;;;;;;;;;;;20.62;32.24;99451.75;7858697;30;20045;-73
2022/05/28 15:19:06;;;;;;;;;;;;;;;20.16;33.61;99452.88;7866930;30;20699;-76
2022/05/28 15:23:08;;;;;;;;;;;;;;;19.86;34.54;99445.31;7866485;30;19953;-76
2022/05/28 15:27:10;;;;;;;;;;;;;;;19.77;34.26;99440.44;7864989;30;19930;-76
2022/05/28 15:31:11;;;;;;;;;;;;;;;19.71;36.35;99434.53;7857479;30;19929;-76
2022/05/28 15:35:15;;;;;;;;;;;;;;;19.61;37.96;99440.19;7862826;30;20238;-75
2022/05/28 15:39:16;;;;;;;;;;;;;;;19.45;36.51;99432.94;7862588;30;20028;-75
2022/05/28 15:43:18;;;;;;;;;;;;;;;19.42;37.56;99423.38;7865970;30;20651;-75
2022/05/28 15:47:20;;;;;;;;;;;;;;;19.68;37.31;99425.00;7865663;30;19930;-73
2022/05/28 15:51:21;;;;;;;;;;;;;;;20.06;35.83;99419.88;7865510;30;20037;-73
2022/05/28 15:55:24;;;;;;;;;;;;;;;20.17;37.29;99413.25;7866550;30;20969;-73
2022/05/28 15:59:25;;;;;;;;;;;;;;;20.30;35.68;99416.22;7865073;30;20296;-73
2022/05/28 16:03:27;;;;;;;;;;;;;;;20.07;37.92;99414.56;7860754;30;19972;-74
2022/05/28 16:07:29;;;;;;;;;;;;;;;19.80;36.66;99410.47;7864973;30;20044;-76
2022/05/28 16:11:33;;;;;;;;;;;;;;;19.48;37.13;99407.34;7866196;30;20347;-76
2022/05/28 16:15:34;;;;;;;;;;;;;;;19.26;38.25;99409.13;7864279;30;19940;-75
2022/05/28 16:19:36;;;;;;;;;;;;;;;19.05;38.36;99404.69;7872267;30;20029;-77
2022/05/28 16:23:38;;;;;;;;;;;;;;;18.87;38.99;99401.00;7868695;30;19961;-76
2022/05/28 16:27:40;;;;;;;;;;;;;;;18.76;40.96;99390.00;7860170;30;20557;-76
2022/05/28 16:31:41;;;;;;;;;;;;;;;18.73;41.43;99390.13;7860779;30;19936;-77
2022/05/28 16:35:43;;;;;;;;;;;;;;;18.71;41.39;99387.56;7870907;30;19929;-76
2022/05/28 16:39:45;;;;;;;;;;;;;;;18.75;42.62;99390.91;7874795;30;20442;-76
2022/05/28 16:43:46;;;;;;;;;;;;;;;18.70;42.21;99376.19;7874836;30;19930;-76
2022/05/28 16:47:48;;;;;;;;;;;;;;;18.72;41.55;99381.38;7872553;29;20435;-76
2022/05/28 16:51:50;;;;;;;;;;;;;;;18.68;40.98;99375.38;7876014;30;20539;-76
2022/05/28 16:55:51;;;;;;;;;;;;;;;18.57;40.83;99379.28;7875605;30;19930;-76
2022/05/28 16:59:53;;;;;;;;;;;;;;;18.43;40.79;99378.00;7876440;30;20020;-76
2022/05/28 17:03:54;;;;;;;;;;;;;;;18.31;42.11;99388.09;7873996;29;19969;-76
2022/05/28 17:07:57;;;;;;;;;;;;;;;18.20;40.66;99385.03;7875405;30;19929;-76
2022/05/28 17:11:58;;;;;;;;;;;;;;;18.06;40.44;99385.50;7875440;30;19929;-76
2022/05/28 17:16:00;;;;;;;;;;;;;;;17.97;39.76;99386.69;7871964;29;20028;-77
2022/05/28 17:20:04;;;;;;;;;;;;;;;17.82;41.30;99387.22;7872379;30;19958;-78
2022/05/28 17:24:06;;;;;;;;;;;;;;;17.66;42.34;99383.34;7861217;30;19930;-77
2022/05/28 17:28:10;;;;;;;;;;;;;;;17.50;40.87;99386.47;7861744;30;20029;-77
2022/05/28 17:32:13;;;;;;;;;;;;;;;17.37;41.84;99379.91;7866350;30;19937;-77
2022/05/28 17:36:14;;;;;;;;;;;;;;;17.21;42.64;99374.28;7868676;30;21389;-76
2022/05/28 17:40:17;;;;;;;;;;;;;;;17.07;43.57;99370.38;7872912;30;19929;-77
2022/05/28 17:44:19;;;;;;;;;;;;;;;16.99;43.23;99367.13;7871501;30;19929;-77
2022/05/28 17:48:22;;;;;;;;;;;;;;;16.88;44.13;99365.72;7862176;30;20005;-77
2022/05/28 17:52:24;;;;;;;;;;;;;;;16.78;43.99;99360.78;7868586;30;19965;-77
2022/05/28 17:56:26;;;;;;;;;;;;;;;16.69;42.95;99361.88;7863908;30;19929;-75
2022/05/28 18:00:27;;;;;;;;;;;;;;;16.60;42.37;99367.38;7847542;30;20033;-75
2022/05/28 18:04:31;;;;;;;;;;;;;;;16.55;43.61;99364.91;7862899;30;20387;-75
2022/05/28 18:08:33;;;;;;;;;;;;;;;16.48;44.17;99367.72;7865378;30;19930;-75
2022/05/28 18:12:35;;;;;;;;;;;;;;;16.40;43.11;99361.88;7868864;30;19930;-75
2022/05/28 18:16:40;;;;;;;;;;;;;;;16.29;42.50;99357.78;7863823;30;20346;-75
2022/05/28 18:20:45;;;;;;;;;;;;;;;16.21;44.24;99362.38;7867597;30;19929;-74
2022/05/28 18:24:46;;;;;;;;;;;;;;;16.04;45.92;99353.28;7869617;30;20295;-75
2022/05/28 18:28:48;;;;;;;;;;;;;;;15.87;46.69;99356.34;7868106;30;20020;-75
2022/05/28 18:32:49;;;;;;;;;;;;;;;15.59;46.10;99359.66;7864433;30;19930;-76
2022/05/28 18:36:50;;;;;;;;;;;;;;;15.48;46.22;99350.34;7862069;30;20029;-75
2022/05/28 18:40:52;;;;;;;;;;;;;;;15.35;47.61;99353.25;7856742;30;19930;-73
2022/05/28 18:44:54;;;;;;;;;;;;;;;15.18;49.30;99350.16;7864404;30;19937;-74
2022/05/28 18:48:56;;;;;;;;;;;;;;;15.06;51.68;99350.44;7859348;30;19941;-72
2022/05/28 18:57:18;;;;;;;;;;;;;;;14.70;53.42;99349.53;7868564;30;19929;-72
2022/05/28 19:01:19;;;;;;;;;;;;;;;14.42;56.42;99352.69;7866012;30;20391;-72
2022/05/28 19:05:21;;;;;;;;;;;;;;;14.21;56.80;99350.53;7870069;30;20347;-72
2022/05/28 19:09:27;;;;;;;;;;;;;;;13.94;57.44;99346.69;7863995;30;19969;-72
2022/05/28 19:13:28;;;;;;;;;;;;;;;13.73;57.42;99347.94;7863132;30;19929;-72
2022/05/28 19:17:29;;;;;;;;;;;;;;;13.52;58.23;99348.31;7858376;30;19930;-72
2022/05/28 19:21:31;;;;;;;;;;;;;;;13.30;59.34;99343.47;7863690;30;20338;-72
2022/05/28 19:29:53;;;;;;;;;;;;;;;12.89;60.15;99354.47;7865814;30;19974;-71
2022/05/28 19:33:55;;;;;;;;;;;;;;;12.74;61.66;99344.25;7848592;30;19997;-72
2022/05/28 19:37:56;;;;;;;;;;;;;;;12.53;61.31;99344.56;7840991;30;20271;-72
2022/05/28 19:41:57;;;;;;;;;;;;;;;12.32;62.67;99356.97;7837610;30;20029;-71
2022/05/28 19:46:00;;;;;;;;;;;;;;;12.22;62.74;99357.97;7834833;30;20467;-71
2022/05/28 19:50:02;;;;;;;;;;;;;;;12.02;63.74;99360.78;7833219;30;19930;-71
2022/05/28 19:54:03;;;;;;;;;;;;;;;11.85;64.29;99359.22;7831407;30;19934;-71
2022/05/28 19:58:05;;;;;;;;;;;;;;;11.68;63.97;99370.66;7828068;30;19929;-72
2022/05/28 20:02:10;;;;;;;;;;;;;;;11.55;64.80;99363.81;7827274;30;19938;-71
2022/05/28 20:06:12;;;;;;;;;;;;;;;11.49;65.39;99364.75;7831352;30;19934;-71
2022/05/28 20:10:13;;;;;;;;;;;;;;;11.43;65.68;99362.19;7823865;30;20029;-71
2022/05/28 20:14:15;;;;;;;;;;;;;;;11.36;65.51;99360.50;7828129;30;19933;-71
2022/05/28 20:18:16;;;;;;;;;;;;;;;11.28;65.51;99364.91;7822088;30;19934;-71
2022/05/28 20:22:18;;;;;;;;;;;;;;;11.18;65.08;99356.31;7830045;30;19976;-71
2022/05/28 20:26:19;;;;;;;;;;;;;;;11.06;64.87;99352.94;7832125;30;19931;-71
2022/05/28 20:30:23;;;;;;;;;;;;;;;11.02;65.41;99367.69;7826844;30;19945;-71
2022/05/28 20:34:27;;;;;;;;;;;;;;;10.94;65.27;99358.22;7830831;30;19941;-71
2022/05/28 20:38:29;;;;;;;;;;;;;;;10.89;66.19;99358.25;7867858;30;19930;-71
2022/05/28 20:42:30;;;;;;;;;;;;;;;10.82;66.55;99354.84;7868416;30;19930;-71
2022/05/28 20:46:31;;;;;;;;;;;;;;;10.77;66.87;99350.53;7866427;30;19940;-71
2022/05/28 20:50:35;;;;;;;;;;;;;;;10.74;67.62;99353.13;7870922;30;19929;-71
2022/05/28 20:54:36;;;;;;;;;;;;;;;10.71;67.59;99355.75;7866019;30;20662;-71
2022/05/28 20:58:38;;;;;;;;;;;;;;;10.66;67.40;99352.34;7863083;30;20431;-71
2022/05/28 21:02:41;;;;;;;;;;;;;;;10.60;66.90;99342.84;7853036;30;19930;-71
2022/05/28 21:06:48;;;;;;;;;;;;;;;10.59;67.02;99344.59;7881426;30;20391;-71
2022/05/28 21:10:50;;;;;;;;;;;;;;;10.55;67.69;99340.25;7869015;30;20038;-71
2022/05/28 21:14:51;;;;;;;;;;;;;;;10.46;67.61;99335.13;7867829;30;19940;-71
2022/05/28 21:18:55;;;;;;;;;;;;;;;10.39;67.63;99328.22;7861793;30;20070;-71
2022/05/28 21:22:56;;;;;;;;;;;;;;;10.37;67.95;99335.16;7870782;30;19929;-71
2022/05/28 21:31:18;;;;;;;;;;;;;;;10.26;68.83;99335.22;7868909;30;19946;-71
2022/05/28 21:35:26;;;;;;;;;;;;;;;10.22;68.80;99336.06;7868715;30;20057;-71